createdAt,value
2024-02-01T00:02:20.426Z,3.71
2024-02-01T00:04:49.897Z,2.72
2024-02-01T00:07:24.248Z,3.42
2024-02-01T00:09:53.241Z,3.48
2024-02-01T00:12:23.492Z,3.64
2024-02-01T00:14:52.893Z,3.67
2024-02-01T00:17:22.536Z,3.44
2024-02-01T00:19:51.653Z,3.41
2024-02-01T00:22:28.374Z,3.35
2024-02-01T00:25:02.461Z,3.29
2024-02-01T00:27:32.999Z,3.41
2024-02-01T00:30:02.642Z,3.44
2024-02-01T00:32:32.530Z,3.74
2024-02-01T00:35:00.939Z,3.08
2024-02-01T00:37:32.500Z,3.49
2024-02-01T00:40:01.690Z,3.39
2024-02-01T00:42:31.619Z,3.46
2024-02-01T00:45:03.374Z,3.37
2024-02-01T00:47:33.697Z,3.63
2024-02-01T00:50:02.487Z,3.65
2024-02-01T00:52:31.899Z,3.40
2024-02-01T00:55:01.749Z,3.01
2024-02-01T00:57:30.718Z,3.23
2024-02-01T01:00:07.137Z,3.20
2024-02-01T01:02:41.797Z,3.25
2024-02-01T01:05:11.073Z,3.30
2024-02-01T01:07:41.765Z,3.00
2024-02-01T01:10:11.222Z,3.17
2024-02-01T01:12:41.435Z,3.09
2024-02-01T01:15:11.787Z,3.28
2024-02-01T01:17:41.538Z,3.35
2024-02-01T01:20:10.979Z,2.96
2024-02-01T01:22:48.366Z,3.16
2024-02-01T01:25:17.445Z,2.95
2024-02-01T01:27:48.185Z,2.72
2024-02-01T01:30:18.135Z,2.67
2024-02-01T01:32:47.941Z,2.64
2024-02-01T01:35:16.529Z,2.80
2024-02-01T01:37:53.826Z,2.63
2024-02-01T01:40:23.099Z,2.69
2024-02-01T01:42:55.983Z,2.87
2024-02-01T01:45:27.634Z,2.87
2024-02-01T01:48:00.577Z,2.79
2024-02-01T01:50:33.610Z,2.91
2024-02-01T01:53:02.337Z,2.99
2024-02-01T01:55:33.968Z,2.83
2024-02-01T01:58:03.517Z,2.99
2024-02-01T02:00:36.893Z,2.90
2024-02-01T02:03:06.302Z,3.00
2024-02-01T02:05:38.201Z,2.78
2024-02-01T02:08:09.045Z,2.86
2024-02-01T02:10:41.212Z,2.89
2024-02-01T02:13:10.675Z,2.98
2024-02-01T02:15:40.885Z,2.92
2024-02-01T02:18:12.899Z,2.93
2024-02-01T02:20:44.662Z,2.96
2024-02-01T02:23:15.145Z,2.83
2024-02-01T02:25:49.890Z,2.99
2024-02-01T02:28:19.173Z,2.92
2024-02-01T02:30:57.183Z,2.85
2024-02-01T02:33:28.299Z,2.90
2024-02-01T02:35:56.747Z,2.87
2024-02-01T02:38:30.093Z,2.84
2024-02-01T02:41:00.994Z,2.77
2024-02-01T02:43:30.356Z,2.61
2024-02-01T02:45:59.380Z,2.85
2024-02-01T02:48:27.736Z,2.72
2024-02-01T02:51:00.516Z,2.74
2024-02-01T02:53:34.146Z,2.66
2024-02-01T02:56:04.405Z,2.54
2024-02-01T02:58:34.074Z,2.64
2024-02-01T03:01:07.433Z,2.70
2024-02-01T03:03:41.661Z,2.71
2024-02-01T03:06:13.421Z,2.55
2024-02-01T03:08:49.191Z,2.32
2024-02-01T03:11:18.236Z,2.31
2024-02-01T03:13:48.308Z,2.41
2024-02-01T03:16:44.452Z,2.40
2024-02-01T03:19:14.395Z,2.41
2024-02-01T03:21:47.672Z,2.47
2024-02-01T03:25:15.165Z,2.45
2024-02-01T03:28:23.574Z,2.41
2024-02-01T03:31:49.788Z,2.54
2024-02-01T03:34:40.048Z,2.55
2024-02-01T03:38:09.836Z,2.56
2024-02-01T03:41:06.355Z,2.50
2024-02-01T03:44:16.496Z,2.65
2024-02-01T03:47:26.546Z,2.67
2024-02-01T03:50:45.018Z,2.74
2024-02-01T03:57:25.796Z,2.64
2024-02-01T04:07:21.132Z,2.46
2024-02-01T04:10:51.331Z,2.49
2024-02-01T04:13:54.110Z,2.44
2024-02-01T04:17:28.326Z,2.54
2024-02-01T04:27:41.238Z,2.53
2024-02-01T04:31:21.043Z,2.41
2024-02-01T04:41:09.414Z,2.42
2024-02-01T04:55:23.349Z,2.19
2024-02-01T05:45:57.312Z,3.15
2024-02-01T06:11:04.773Z,3.24
2024-02-01T06:14:30.531Z,3.22
2024-02-01T07:05:00.456Z,3.58
2024-02-01T07:08:10.022Z,3.58
2024-02-01T07:11:25.030Z,3.62
2024-02-01T07:14:41.474Z,3.51
2024-02-01T07:17:52.158Z,3.71
2024-02-01T07:21:01.618Z,3.86
2024-02-01T07:28:18.098Z,3.88
2024-02-01T07:42:36.190Z,4.00
2024-02-01T07:46:06.626Z,3.98
2024-02-01T07:49:54.089Z,3.91
2024-02-01T08:07:02.485Z,4.03
2024-02-01T08:10:03.401Z,4.15
2024-02-01T08:13:29.973Z,4.09
2024-02-01T08:20:44.418Z,4.34
2024-02-01T08:23:41.421Z,4.44
2024-02-01T08:27:02.941Z,4.20
2024-02-01T08:39:31.069Z,4.45
2024-02-01T08:43:01.461Z,4.75
2024-02-01T08:48:43.723Z,4.89
2024-02-01T08:51:14.342Z,4.99
2024-02-01T08:53:45.457Z,5.07
2024-02-01T08:56:14.348Z,4.98
2024-02-01T08:58:43.958Z,5.22
2024-02-01T09:01:26.358Z,5.23
2024-02-01T09:03:56.132Z,5.20
2024-02-01T09:06:26.739Z,5.52
2024-02-01T09:08:56.614Z,5.67
2024-02-01T09:11:30.364Z,5.43
2024-02-01T09:13:58.711Z,5.54
2024-02-01T09:16:32.878Z,5.55
2024-02-01T09:19:06.843Z,5.76
2024-02-01T09:21:42.226Z,5.47
2024-02-01T09:24:11.841Z,5.52
2024-02-01T09:26:42.531Z,5.71
2024-02-01T09:29:16.116Z,5.78
2024-02-01T09:31:46.141Z,5.77
2024-02-01T09:34:18.103Z,5.84
2024-02-01T09:36:49.432Z,5.87
2024-02-01T09:39:20.732Z,5.80
2024-02-01T09:41:54.569Z,5.76
2024-02-01T09:44:24.028Z,5.61
2024-02-01T09:46:52.660Z,5.70
2024-02-01T09:49:28.352Z,5.65
2024-02-01T09:52:02.373Z,5.73
2024-02-01T09:54:31.161Z,5.87
2024-02-01T09:57:00.388Z,6.11
2024-02-01T09:59:36.474Z,6.31
2024-02-01T10:02:05.677Z,6.49
2024-02-01T10:04:44.972Z,6.15
2024-02-01T10:07:14.071Z,6.33
2024-02-01T10:09:53.669Z,6.47
2024-02-01T10:12:34.003Z,6.58
2024-02-01T10:15:16.154Z,6.65
2024-02-01T10:17:51.850Z,6.78
2024-02-01T10:20:38.256Z,6.60
2024-02-01T10:23:06.916Z,6.71
2024-02-01T10:25:42.141Z,6.58
2024-02-01T10:28:13.198Z,6.84
2024-02-01T10:30:46.502Z,6.80
2024-02-01T10:33:24.022Z,6.81
2024-02-01T10:36:10.570Z,7.15
2024-02-01T10:38:44.467Z,7.10
2024-02-01T10:41:18.175Z,7.09
2024-02-01T10:43:51.121Z,7.05
2024-02-01T10:46:29.434Z,7.24
2024-02-01T10:49:00.516Z,7.52
2024-02-01T10:51:35.364Z,7.66
2024-02-01T10:54:04.137Z,8.01
2024-02-01T10:56:34.939Z,7.77
2024-02-01T10:59:08.991Z,7.82
2024-02-01T11:01:46.018Z,8.32
2024-02-01T11:04:18.677Z,8.38
2024-02-01T11:06:50.105Z,8.47
2024-02-01T11:09:26.555Z,8.67
2024-02-01T11:12:06.886Z,8.62
2024-02-01T11:14:37.222Z,8.77
2024-02-01T11:17:19.954Z,8.99
2024-02-01T11:19:51.564Z,9.50
2024-02-01T11:22:30.977Z,9.53
2024-02-01T11:25:07.526Z,9.60
2024-02-01T11:27:39.231Z,9.64
2024-02-01T11:30:23.199Z,9.71
2024-02-01T11:32:54.287Z,9.75
2024-02-01T11:35:26.010Z,9.76
2024-02-01T11:38:03.926Z,9.72
2024-02-01T11:40:34.751Z,9.62
2024-02-01T11:43:07.764Z,9.62
2024-02-01T11:45:39.762Z,9.47
2024-02-01T11:48:21.726Z,9.92
2024-02-01T11:50:55.411Z,9.92
2024-02-01T11:53:29.469Z,9.96
2024-02-01T11:55:59.020Z,9.76
2024-02-01T11:58:33.334Z,9.85
2024-02-01T12:01:10.599Z,10.17
2024-02-01T12:03:50.282Z,10.06
2024-02-01T12:06:21.044Z,9.87
2024-02-01T12:08:54.137Z,10.20
2024-02-01T12:11:26.006Z,10.24
2024-02-01T12:14:03.103Z,10.18
2024-02-01T12:16:35.920Z,10.29
2024-02-01T12:19:15.864Z,10.44
2024-02-01T12:21:44.540Z,10.55
2024-02-01T12:24:19.576Z,10.34
2024-02-01T12:26:48.378Z,10.60
2024-02-01T12:29:18.396Z,10.75
2024-02-01T12:31:50.686Z,10.62
2024-02-01T12:34:19.636Z,10.67
2024-02-01T12:36:49.576Z,10.88
2024-02-01T12:39:25.036Z,10.74
2024-02-01T12:41:53.728Z,10.68
2024-02-01T12:44:35.525Z,10.40
2024-02-01T12:47:07.334Z,10.49
2024-02-01T12:49:36.995Z,10.30
2024-02-01T12:52:07.482Z,10.36
2024-02-01T12:54:39.931Z,10.09
2024-02-01T12:57:10.431Z,9.85
2024-02-01T12:59:39.474Z,10.05
2024-02-01T13:02:12.238Z,10.09
2024-02-01T13:04:41.286Z,9.95
2024-02-01T13:07:13.410Z,9.76
2024-02-01T13:09:44.818Z,9.69
2024-02-01T13:12:24.056Z,9.77
2024-02-01T13:15:06.593Z,9.87
2024-02-01T13:17:37.081Z,9.79
2024-02-01T13:20:20.497Z,9.85
2024-02-01T13:22:49.726Z,10.10
2024-02-01T13:25:23.867Z,9.97
2024-02-01T13:27:54.742Z,9.81
2024-02-01T13:30:24.806Z,10.04
2024-02-01T13:32:54.197Z,9.75
2024-02-01T13:35:23.965Z,9.58
2024-02-01T13:37:56.751Z,9.45
2024-02-01T13:40:32.852Z,9.46
2024-02-01T13:43:08.211Z,9.63
2024-02-01T13:45:36.964Z,9.50
2024-02-01T13:48:09.590Z,9.16
2024-02-01T13:50:38.461Z,8.95
2024-02-01T13:53:08.756Z,9.19
2024-02-01T13:55:38.837Z,9.01
2024-02-01T13:58:08.913Z,8.63
2024-02-01T14:00:44.238Z,9.02
2024-02-01T14:03:20.687Z,9.02
2024-02-01T14:05:59.311Z,8.92
2024-02-01T14:08:29.087Z,8.87
2024-02-01T14:11:02.279Z,8.84
2024-02-01T14:13:33.948Z,8.96
2024-02-01T14:16:06.435Z,8.92
2024-02-01T14:18:54.545Z,9.06
2024-02-01T14:21:26.746Z,8.84
2024-02-01T14:23:55.238Z,9.04
2024-02-01T14:26:26.380Z,9.17
2024-02-01T14:28:55.321Z,9.09
2024-02-01T14:31:24.919Z,9.12
2024-02-01T14:33:54.000Z,8.94
2024-02-01T14:36:23.908Z,8.90
2024-02-01T14:38:53.655Z,9.02
2024-02-01T14:41:22.288Z,8.94
2024-02-01T14:44:00.421Z,8.74
2024-02-01T14:46:29.751Z,8.83
2024-02-01T14:48:59.539Z,8.89
2024-02-01T14:51:30.084Z,8.97
2024-02-01T14:53:58.525Z,8.73
2024-02-01T14:59:03.257Z,8.69
2024-02-01T15:01:33.719Z,8.80
2024-02-01T15:04:03.982Z,8.72
2024-02-01T15:06:33.802Z,8.59
2024-02-01T15:09:04.744Z,8.46
2024-02-01T15:11:38.472Z,8.54
2024-02-01T15:16:48.777Z,8.32
2024-02-01T15:19:26.772Z,8.14
2024-02-01T15:22:01.441Z,8.14
2024-02-01T15:24:31.800Z,8.33
2024-02-01T15:27:07.016Z,8.53
2024-02-01T15:29:44.696Z,8.52
2024-02-01T15:32:18.031Z,8.44
2024-02-01T15:34:52.298Z,8.61
2024-02-01T15:37:21.433Z,8.45
2024-02-01T15:39:58.786Z,8.42
2024-02-01T15:42:36.510Z,8.33
2024-02-01T15:45:17.276Z,8.18
2024-02-01T15:47:58.741Z,8.23
2024-02-01T15:50:28.158Z,8.24
2024-02-01T15:52:57.822Z,8.09
2024-02-01T15:55:27.491Z,8.12
2024-02-01T15:58:01.674Z,7.83
2024-02-01T16:00:32.312Z,8.01
2024-02-01T16:03:04.378Z,8.14
2024-02-01T16:05:48.097Z,8.11
2024-02-01T16:08:18.763Z,7.79
2024-02-01T16:10:48.207Z,7.82
2024-02-01T16:13:16.942Z,7.78
2024-02-01T16:15:48.057Z,7.80
2024-02-01T16:18:29.159Z,7.91
2024-02-01T16:20:58.015Z,7.85
2024-02-01T16:23:31.744Z,7.74
2024-02-01T16:26:02.970Z,7.58
2024-02-01T16:28:40.985Z,7.66
2024-02-01T16:31:19.462Z,7.57
2024-02-01T16:33:59.977Z,7.51
2024-02-01T16:36:43.771Z,7.47
2024-02-01T16:39:17.191Z,7.38
2024-02-01T16:41:46.406Z,7.08
2024-02-01T16:44:21.638Z,6.97
2024-02-01T16:46:52.003Z,7.44
2024-02-01T16:49:23.156Z,7.60
2024-02-01T16:51:52.659Z,7.63
2024-02-01T16:54:25.957Z,7.73
2024-02-01T16:56:54.767Z,8.08
2024-02-01T16:59:27.832Z,7.84
2024-02-01T17:01:58.008Z,7.79
2024-02-01T17:04:30.256Z,7.86
2024-02-01T17:06:59.484Z,8.12
2024-02-01T17:09:29.235Z,8.28
2024-02-01T17:11:58.708Z,8.18
2024-02-01T17:14:35.312Z,8.15
2024-02-01T17:17:10.761Z,8.11
2024-02-01T17:19:40.695Z,7.94
2024-02-01T17:22:15.496Z,7.71
2024-02-01T17:24:45.942Z,7.66
2024-02-01T17:27:19.782Z,7.45
2024-02-01T17:29:48.275Z,7.50
2024-02-01T17:32:19.538Z,7.37
2024-02-01T17:34:48.187Z,7.25
2024-02-01T17:37:42.545Z,7.45
2024-02-01T17:40:11.717Z,7.47
2024-02-01T17:42:44.340Z,7.50
2024-02-01T17:45:35.031Z,7.65
2024-02-01T17:48:15.278Z,7.68
2024-02-01T17:50:50.966Z,7.76
2024-02-01T17:53:20.160Z,7.91
2024-02-01T17:55:50.182Z,7.78
2024-02-01T17:58:36.785Z,7.88
2024-02-01T18:01:05.944Z,7.86
2024-02-01T18:03:39.645Z,7.55
2024-02-01T18:06:09.042Z,7.74
2024-02-01T18:08:44.103Z,7.63
2024-02-01T18:11:40.740Z,7.78
2024-02-01T18:14:23.593Z,7.87
2024-02-01T18:16:52.387Z,7.80
2024-02-01T18:19:27.205Z,7.91
2024-02-01T18:21:57.357Z,7.88
2024-02-01T18:24:35.459Z,7.77
2024-02-01T18:27:11.185Z,7.86
2024-02-01T18:29:49.042Z,8.09
2024-02-01T18:32:17.837Z,8.15
2024-02-01T18:34:51.092Z,8.30
2024-02-01T18:37:24.861Z,8.36
2024-02-01T18:39:53.597Z,8.05
2024-02-01T18:42:26.169Z,7.93
2024-02-01T18:44:55.197Z,8.04
2024-02-01T18:47:26.832Z,8.07
2024-02-01T18:49:56.970Z,8.07
2024-02-01T18:52:27.355Z,8.19
2024-02-01T18:54:59.286Z,8.28
2024-02-01T18:57:29.534Z,8.19
2024-02-01T19:00:01.660Z,8.08
2024-02-01T19:02:39.742Z,8.29
2024-02-01T19:05:09.583Z,7.92
2024-02-01T19:07:48.904Z,8.07
2024-02-01T19:10:37.944Z,8.34
2024-02-01T19:13:07.669Z,8.15
2024-02-01T19:15:50.023Z,7.85
2024-02-01T19:18:19.304Z,8.01
2024-02-01T19:20:52.400Z,7.51
2024-02-01T19:23:22.573Z,7.53
2024-02-01T19:25:52.518Z,7.72
2024-02-01T19:28:34.020Z,7.61
2024-02-01T19:31:03.026Z,7.53
2024-02-01T19:33:39.062Z,7.73
2024-02-01T19:36:14.069Z,7.77
2024-02-01T19:38:44.471Z,7.61
2024-02-01T19:41:23.854Z,7.49
2024-02-01T19:44:06.720Z,7.62
2024-02-01T19:46:44.119Z,7.57
2024-02-01T19:49:13.125Z,7.50
2024-02-01T19:51:44.110Z,7.33
2024-02-01T19:54:16.347Z,7.50
2024-02-01T19:56:49.858Z,7.25
2024-02-01T19:59:19.303Z,7.21
2024-02-01T20:01:48.929Z,7.19
2024-02-01T20:04:18.018Z,7.54
2024-02-01T20:06:49.456Z,7.70
2024-02-01T20:09:20.841Z,7.56
2024-02-01T20:11:55.011Z,7.74
2024-02-01T20:14:24.015Z,7.29
2024-02-01T20:16:53.168Z,7.77
2024-02-01T20:19:22.215Z,7.28
2024-02-01T20:21:55.779Z,7.08
2024-02-01T20:24:26.325Z,6.90
2024-02-01T20:26:56.852Z,6.86
2024-02-01T20:29:25.941Z,6.77
2024-02-01T20:31:55.599Z,6.74
2024-02-01T20:34:28.294Z,6.59
2024-02-01T20:37:03.784Z,6.65
2024-02-01T20:39:42.010Z,6.65
2024-02-01T20:42:12.815Z,6.53
2024-02-01T20:44:44.826Z,6.67
2024-02-01T20:47:23.653Z,6.76
2024-02-01T20:49:52.643Z,6.63
2024-02-01T20:52:27.212Z,6.48
2024-02-01T20:55:10.370Z,6.43
2024-02-01T20:57:53.236Z,6.73
2024-02-01T21:00:42.428Z,6.82
2024-02-01T21:03:15.019Z,6.86
2024-02-01T21:05:44.433Z,7.14
2024-02-01T21:08:16.778Z,6.67
2024-02-01T21:10:50.471Z,6.47
2024-02-01T21:13:29.598Z,6.72
2024-02-01T21:15:58.958Z,6.50
2024-02-01T21:18:27.935Z,6.52
2024-02-01T21:21:02.062Z,6.31
2024-02-01T21:23:36.063Z,6.35
2024-02-01T21:26:32.152Z,6.67
2024-02-01T21:29:02.610Z,6.74
2024-02-01T21:31:51.379Z,6.51
2024-02-01T21:34:21.505Z,6.50
2024-02-01T21:36:55.896Z,6.47
2024-02-01T21:39:30.769Z,6.63
2024-02-01T21:42:03.174Z,6.58
2024-02-01T21:44:32.984Z,6.59
2024-02-01T21:47:01.688Z,6.61
2024-02-01T21:49:31.017Z,6.62
2024-02-01T21:52:05.322Z,6.45
2024-02-01T21:54:41.564Z,6.34
2024-02-01T21:57:11.957Z,6.24
2024-02-01T21:59:40.739Z,6.60
2024-02-01T22:02:27.642Z,6.71
2024-02-01T22:04:57.236Z,6.61
2024-02-01T22:07:25.794Z,6.65
2024-02-01T22:09:54.477Z,6.29
2024-02-01T22:12:28.375Z,6.47
2024-02-01T22:14:59.250Z,6.49
2024-02-01T22:17:33.581Z,6.40
2024-02-01T22:20:10.177Z,6.50
2024-02-01T22:22:40.928Z,6.43
2024-02-01T22:25:11.651Z,5.96
2024-02-01T22:27:42.063Z,5.98
2024-02-01T22:30:11.964Z,6.03
2024-02-01T22:32:42.484Z,6.15
2024-02-01T22:35:12.389Z,6.01
2024-02-01T22:37:41.508Z,6.20
2024-02-01T22:40:16.531Z,6.12
2024-02-01T22:43:09.197Z,6.28
2024-02-01T22:45:45.852Z,6.40
2024-02-01T22:48:24.416Z,6.09
2024-02-01T22:50:53.934Z,5.89
2024-02-01T22:53:26.146Z,5.90
2024-02-01T22:55:54.612Z,5.63
2024-02-01T22:58:24.692Z,5.61
2024-02-01T23:01:13.987Z,5.65
2024-02-01T23:03:50.373Z,5.68
2024-02-01T23:06:24.818Z,5.69
2024-02-01T23:09:07.088Z,5.44
2024-02-01T23:11:38.346Z,5.65
2024-02-01T23:14:08.499Z,5.73
2024-02-01T23:16:39.368Z,5.77
2024-02-01T23:19:08.853Z,6.01
2024-02-01T23:21:46.246Z,5.84
2024-02-01T23:24:20.610Z,6.16
2024-02-01T23:26:49.059Z,6.25
2024-02-01T23:29:18.759Z,6.06
2024-02-01T23:31:50.080Z,6.01
2024-02-01T23:34:20.196Z,5.76
2024-02-01T23:36:48.731Z,5.49
2024-02-01T23:39:17.871Z,5.67
2024-02-01T23:41:49.849Z,5.54
2024-02-01T23:44:22.031Z,5.69
2024-02-01T23:46:52.360Z,5.56
2024-02-01T23:49:26.475Z,5.38
2024-02-01T23:51:55.594Z,5.56
2024-02-01T23:54:25.590Z,5.29
2024-02-01T23:56:54.362Z,5.45
2024-02-01T23:59:26.092Z,5.38
